createdAt,value
2022-12-09T05:57:05.897Z,35.88
2022-12-09T06:00:09.426Z,32.13
2022-12-09T06:03:15.426Z,34.42
2022-12-09T06:06:19.904Z,50.10
2022-12-09T06:09:22.207Z,35.85
2022-12-09T06:12:25.082Z,30.77
2022-12-09T06:15:32.955Z,38.93
2022-12-09T06:18:36.954Z,36.13
2022-12-09T06:21:40.916Z,28.45
2022-12-09T06:24:43.276Z,29.13
2022-12-09T06:27:45.215Z,29.27
2022-12-09T06:30:47.290Z,30.80
2022-12-09T06:33:58.412Z,28.35
2022-12-09T06:37:01.480Z,28.73
2022-12-09T06:40:04.610Z,31.27
2022-12-09T06:43:06.845Z,19.42
2022-12-09T06:46:17.155Z,29.47
2022-12-09T06:49:19.390Z,26.38
2022-12-09T06:52:22.163Z,26.15
2022-12-09T06:55:24.181Z,31.45
2022-12-09T06:58:26.065Z,32.20
2022-12-09T07:01:28.124Z,32.67
2022-12-09T07:04:31.302Z,31.30
2022-12-09T07:07:33.899Z,32.85
2022-12-09T07:10:36.975Z,32.70
2022-12-09T07:13:39.363Z,34.10
2022-12-09T07:16:42.199Z,29.70
2022-12-09T07:19:44.911Z,35.72
2022-12-09T07:22:47.203Z,36.45
2022-12-09T07:25:57.125Z,49.17
2022-12-09T07:29:03.083Z,34.55
2022-12-09T07:32:05.574Z,31.67
2022-12-09T07:35:08.575Z,31.13
2022-12-09T07:38:10.947Z,30.35
2022-12-09T07:41:18.330Z,28.65
2022-12-09T07:44:20.611Z,27.00
2022-12-09T07:47:23.062Z,36.43
2022-12-09T07:50:25.377Z,30.20
2022-12-09T07:53:27.863Z,29.85
2022-12-09T07:56:30.214Z,28.63
2022-12-09T07:59:32.416Z,34.05
2022-12-09T08:02:35.393Z,29.17
2022-12-09T08:05:37.612Z,32.33
2022-12-09T08:08:40.192Z,34.17
2022-12-09T08:11:42.659Z,36.00
2022-12-09T08:14:47.003Z,35.17
2022-12-09T08:17:49.435Z,34.70
2022-12-09T08:20:51.534Z,34.03
2022-12-09T08:23:55.579Z,35.13
2022-12-09T08:26:57.909Z,30.95
2022-12-09T08:30:00.746Z,28.77
2022-12-09T08:33:03.239Z,30.03
2022-12-09T08:36:12.331Z,26.77
2022-12-09T08:39:14.869Z,30.13
2022-12-09T08:42:17.628Z,27.52
2022-12-09T08:45:19.970Z,34.10
2022-12-09T08:48:22.214Z,43.33
2022-12-09T08:51:24.863Z,38.53
2022-12-09T08:54:27.427Z,22.30
2022-12-09T08:57:29.530Z,32.65
2022-12-09T09:00:32.387Z,21.92
2022-12-09T09:03:35.584Z,21.30
2022-12-09T09:06:40.697Z,31.77
2022-12-09T09:09:43.250Z,27.95
2022-12-09T09:12:45.615Z,41.33
2022-12-09T09:15:48.115Z,41.05
2022-12-09T09:18:51.577Z,36.00
2022-12-09T09:21:55.513Z,37.65
2022-12-09T09:24:57.689Z,40.80
2022-12-09T09:27:59.767Z,31.63
2022-12-09T09:31:05.401Z,37.90
2022-12-09T09:34:08.287Z,34.77
2022-12-09T09:37:10.287Z,39.45
2022-12-09T09:40:13.443Z,31.98
2022-12-09T09:43:18.166Z,40.67
2022-12-09T09:46:44.131Z,35.38
2022-12-09T09:50:01.763Z,36.03
2022-12-09T09:53:24.023Z,42.53
2022-12-09T09:56:31.979Z,43.25
2022-12-09T09:59:37.362Z,36.80
2022-12-09T10:02:56.955Z,37.17
2022-12-09T10:06:06.317Z,32.93
2022-12-09T10:09:35.238Z,33.00
2022-12-09T10:13:06.931Z,32.03
2022-12-09T10:16:19.276Z,27.60
2022-12-09T10:19:40.182Z,36.35
2022-12-09T10:22:51.444Z,36.03
2022-12-09T10:25:58.378Z,31.58
2022-12-09T10:29:16.192Z,31.60
2022-12-09T10:32:20.692Z,39.22
2022-12-09T10:35:27.761Z,36.67
2022-12-09T10:38:31.782Z,36.83
2022-12-09T10:42:05.624Z,30.65
2022-12-09T10:45:08.584Z,28.30
2022-12-09T10:48:42.624Z,27.95
2022-12-09T10:51:54.086Z,33.88
2022-12-09T10:54:56.669Z,25.27
2022-12-09T10:58:29.126Z,31.88
2022-12-09T11:01:31.452Z,33.22
2022-12-09T11:04:39.302Z,33.20
2022-12-09T11:07:48.422Z,33.55
2022-12-09T11:10:51.241Z,29.47
2022-12-09T11:13:53.943Z,28.50
2022-12-09T11:16:59.624Z,28.05
2022-12-09T11:20:27.436Z,26.42
2022-12-09T11:23:30.071Z,27.15
2022-12-09T11:26:36.626Z,29.43
2022-12-09T11:29:39.075Z,26.25
2022-12-09T11:33:01.597Z,27.83
2022-12-09T11:36:09.579Z,29.55
2022-12-09T11:39:25.482Z,27.75
2022-12-09T11:42:30.106Z,28.20
2022-12-09T11:45:36.957Z,31.67
2022-12-09T11:48:44.024Z,33.80
2022-12-09T11:52:21.561Z,31.10
2022-12-09T11:55:25.789Z,31.23
2022-12-09T11:58:30.825Z,33.43
2022-12-09T12:02:04.997Z,28.30
2022-12-09T12:05:14.685Z,31.15
2022-12-09T12:08:44.682Z,25.52
2022-12-09T12:12:09.428Z,22.65
2022-12-09T12:15:28.263Z,27.40
2022-12-09T12:18:36.164Z,21.52
2022-12-09T12:22:02.396Z,31.58
2022-12-09T12:25:22.241Z,28.67
2022-12-09T12:28:29.842Z,32.78
2022-12-09T12:31:37.455Z,28.63
2022-12-09T12:35:00.968Z,36.67
2022-12-09T12:38:27.074Z,30.15
2022-12-09T12:41:46.509Z,34.88
2022-12-09T12:45:21.999Z,31.10
2022-12-09T12:48:38.582Z,28.97
2022-12-09T12:52:55.110Z,30.27
2022-12-09T12:56:11.817Z,34.08
2022-12-09T12:59:22.088Z,29.30
2022-12-09T13:02:51.615Z,38.25
2022-12-09T13:05:58.213Z,46.37
2022-12-09T13:09:06.131Z,41.80
2022-12-09T13:12:19.168Z,44.45
2022-12-09T13:15:40.387Z,46.60
2022-12-09T13:18:44.259Z,37.90
2022-12-09T13:21:47.280Z,38.20
2022-12-09T13:25:00.414Z,37.05
2022-12-09T13:28:16.579Z,36.08
2022-12-09T13:31:25.941Z,37.55
2022-12-09T13:34:40.252Z,48.22
2022-12-09T13:37:42.051Z,40.33
2022-12-09T13:40:43.967Z,41.33
2022-12-09T13:43:45.831Z,36.22
2022-12-09T13:46:47.779Z,30.70
2022-12-09T13:49:59.526Z,30.33
2022-12-09T13:53:05.108Z,25.53
2022-12-09T13:56:09.133Z,28.55
2022-12-09T13:59:28.931Z,28.88
2022-12-09T14:02:37.215Z,30.17
2022-12-09T14:05:39.631Z,26.20
2022-12-09T14:08:48.523Z,26.63
2022-12-09T14:11:52.556Z,29.08
2022-12-09T14:14:55.747Z,26.23
2022-12-09T14:18:00.605Z,31.38
2022-12-09T14:21:17.767Z,35.88
2022-12-09T14:24:22.335Z,38.03
2022-12-09T14:27:25.495Z,44.05
2022-12-09T14:30:47.802Z,38.20
2022-12-09T14:33:49.881Z,35.13
2022-12-09T14:37:05.043Z,33.95
2022-12-09T14:40:35.793Z,26.30
2022-12-09T14:43:50.112Z,27.17
2022-12-09T14:47:13.621Z,28.08
2022-12-09T14:50:22.471Z,28.83
2022-12-09T14:53:25.520Z,27.15
2022-12-09T14:56:29.821Z,28.50
2022-12-09T14:59:32.445Z,29.45
2022-12-09T15:02:34.532Z,30.50
2022-12-09T15:05:38.601Z,31.10
2022-12-09T15:08:41.593Z,31.17
2022-12-09T15:11:43.490Z,26.17
2022-12-09T15:14:46.221Z,26.92
2022-12-09T15:17:56.303Z,31.67
2022-12-09T15:21:00.053Z,37.47
2022-12-09T15:24:03.088Z,39.40
2022-12-09T15:27:05.058Z,35.40
2022-12-09T15:30:24.859Z,28.52
2022-12-09T15:33:29.253Z,28.33
2022-12-09T15:36:36.436Z,26.33
2022-12-09T15:40:00.568Z,21.88
2022-12-09T15:43:11.043Z,20.67
2022-12-09T15:46:13.949Z,20.63
2022-12-09T15:49:22.413Z,18.95
2022-12-09T15:52:31.403Z,22.77
2022-12-09T15:55:57.999Z,22.23
2022-12-09T15:59:20.643Z,24.70
2022-12-09T16:02:27.308Z,19.48
2022-12-09T16:05:29.362Z,19.70
2022-12-09T16:08:39.527Z,19.80
2022-12-09T16:11:48.032Z,22.90
2022-12-09T16:14:49.956Z,21.90
2022-12-09T16:17:56.631Z,26.35
2022-12-09T16:21:28.076Z,21.50
2022-12-09T16:24:50.792Z,21.35
2022-12-09T16:28:33.897Z,20.65
2022-12-09T16:32:12.291Z,21.03
2022-12-09T16:48:02.932Z,24.45
2022-12-09T17:14:00.986Z,33.17
2022-12-09T17:23:42.330Z,37.40
2022-12-09T17:39:55.672Z,29.58
2022-12-09T17:55:27.995Z,21.10
2022-12-09T17:59:30.119Z,16.10
